Time;durP1;ratioP1;P1;durP2;ratioP2;P2;SDS_P1;SDS_P2;PMS_P1;PMS_P2;Temp;Humidity;BMP_temperature;BMP_pressure;BME280_temperature;BME280_humidity;BME280_pressure;Samples;Min_cycle;Max_cycle;Signal;HPM_P1;HPM_P2
2022/08/02 00:01:42;;;;;;;3.30;3.00;;;19.50;99.90;;;;;;5026802;28;20236;-65
2022/08/02 00:04:08;;;;;;;2.85;2.58;;;19.50;99.90;;;;;;5025626;28;20251;-64
2022/08/02 00:06:33;;;;;;;6.50;2.80;;;19.50;99.90;;;;;;5027991;28;20644;-64
2022/08/02 00:09:00;;;;;;;2.83;2.63;;;19.50;99.90;;;;;;5029120;28;20202;-65
2022/08/02 00:11:25;;;;;;;3.20;2.90;;;19.50;99.90;;;;;;5024855;28;20461;-65
2022/08/02 00:13:51;;;;;;;3.20;2.90;;;19.40;99.90;;;;;;5029287;28;20694;-65
2022/08/02 00:16:17;;;;;;;3.13;2.93;;;19.50;99.90;;;;;;5027435;28;20190;-65
2022/08/02 00:18:42;;;;;;;3.10;2.90;;;19.50;99.90;;;;;;5028076;28;20218;-65
2022/08/02 00:21:08;;;;;;;3.20;2.90;;;19.40;99.90;;;;;;5027301;28;20190;-64
2022/08/02 00:23:34;;;;;;;3.43;3.23;;;19.40;99.90;;;;;;5029431;28;20521;-64
2022/08/02 00:25:59;;;;;;;2.80;2.60;;;19.40;99.90;;;;;;5028853;28;20277;-65
2022/08/02 00:28:25;;;;;;;3.40;3.00;;;19.30;99.90;;;;;;5028790;28;20586;-64
2022/08/02 00:30:51;;;;;;;3.20;3.00;;;19.30;99.90;;;;;;5027916;28;20194;-64
2022/08/02 00:33:17;;;;;;;3.43;3.13;;;19.20;99.90;;;;;;5031843;28;20193;-65
2022/08/02 00:35:45;;;;;;;2.90;2.70;;;19.10;99.90;;;;;;5031260;28;20445;-65
2022/08/02 00:38:11;;;;;;;3.28;2.95;;;19.10;99.90;;;;;;5027790;28;20469;-65
2022/08/02 00:40:37;;;;;;;3.63;3.33;;;19.20;99.90;;;;;;5031740;28;20998;-65
2022/08/02 00:43:07;;;;;;;3.17;2.97;;;19.20;99.90;;;;;;5025244;28;20208;-65
2022/08/02 00:45:34;;;;;;;3.30;3.00;;;19.20;99.90;;;;;;5030861;28;20194;-64
2022/08/02 00:48:00;;;;;;;3.20;3.00;;;19.20;99.90;;;;;;5032273;28;20209;-65
2022/08/02 00:50:26;;;;;;;3.80;3.50;;;19.20;99.90;;;;;;5032179;28;20186;-65
2022/08/02 00:52:52;;;;;;;3.53;3.20;;;19.10;99.90;;;;;;5031494;28;20660;-65
2022/08/02 00:55:17;;;;;;;3.53;3.17;;;19.10;99.90;;;;;;5032777;28;20183;-65
2022/08/02 00:57:43;;;;;;;4.57;3.60;;;19.20;99.90;;;;;;5030618;28;20464;-65
2022/08/02 01:00:10;;;;;;;3.50;3.20;;;19.20;99.90;;;;;;5030344;28;20213;-65
2022/08/02 01:02:35;;;;;;;3.90;3.53;;;19.10;99.90;;;;;;5032122;28;20240;-65
2022/08/02 01:05:01;;;;;;;3.77;3.50;;;19.20;99.90;;;;;;5029171;28;20190;-65
2022/08/02 01:07:26;;;;;;;3.90;3.60;;;19.20;99.90;;;;;;5027363;28;20692;-65
2022/08/02 01:09:52;;;;;;;3.47;3.17;;;19.20;99.90;;;;;;5031818;28;20217;-65
2022/08/02 01:12:18;;;;;;;3.20;2.90;;;19.20;99.90;;;;;;5031698;28;20190;-65
2022/08/02 01:14:46;;;;;;;5.30;3.40;;;19.20;99.90;;;;;;5029730;28;20193;-65
2022/08/02 01:17:37;;;;;;;3.30;3.10;;;19.10;99.90;;;;;;5030672;28;21070;-65
2022/08/02 01:20:37;;;;;;;3.80;3.38;;;19.10;99.90;;;;;;5028135;28;20218;-65
2022/08/02 01:23:15;;;;;;;3.83;3.45;;;19.10;99.90;;;;;;5026491;28;20178;-65
2022/08/02 01:25:49;;;;;;;3.40;3.10;;;19.10;99.90;;;;;;5032368;28;20178;-65
2022/08/02 01:28:15;;;;;;;3.30;3.00;;;19.00;99.90;;;;;;5029548;28;20212;-65
2022/08/02 01:30:45;;;;;;;4.20;3.50;;;19.00;99.90;;;;;;5027379;28;20178;-65
2022/08/02 01:33:15;;;;;;;3.17;2.80;;;19.00;99.90;;;;;;5028849;28;20178;-65
2022/08/02 01:35:44;;;;;;;2.88;2.67;;;19.00;99.90;;;;;;5029556;28;20522;-65
2022/08/02 01:38:37;;;;;;;3.28;3.00;;;19.00;99.90;;;;;;5026986;28;20210;-65
2022/08/02 01:41:06;;;;;;;2.85;2.63;;;19.30;99.90;;;;;;5017035;28;20182;-65
2022/08/02 01:43:34;;;;;;;3.05;2.85;;;19.00;99.90;;;;;;5027005;28;20197;-65
2022/08/02 01:46:01;;;;;;;3.03;2.83;;;19.00;99.90;;;;;;5025368;28;20292;-65
2022/08/02 01:48:30;;;;;;;2.97;2.78;;;19.10;99.90;;;;;;5030957;28;20229;-65
2022/08/02 01:50:58;;;;;;;3.85;3.17;;;19.10;99.90;;;;;;5027785;28;20174;-65
2022/08/02 01:53:27;;;;;;;3.10;2.90;;;19.00;99.90;;;;;;5031447;28;20175;-65
2022/08/02 01:55:54;;;;;;;2.85;2.50;;;18.70;99.90;;;;;;5031263;28;20261;-65
2022/08/02 01:58:23;;;;;;;2.70;2.50;;;19.10;99.90;;;;;;5030208;28;20232;-65
2022/08/02 02:00:51;;;;;;;2.10;2.00;;;19.10;99.90;;;;;;5029662;28;20213;-65
2022/08/02 02:03:21;;;;;;;3.10;2.90;;;19.10;99.90;;;;;;5031443;28;20201;-64
2022/08/02 02:05:48;;;;;;;2.80;2.50;;;19.10;99.90;;;;;;5030113;28;20185;-65
2022/08/02 02:08:18;;;;;;;2.92;2.72;;;19.00;99.90;;;;;;5030667;28;20687;-65
2022/08/02 02:10:44;;;;;;;2.50;2.30;;;19.00;99.90;;;;;;5031336;28;20758;-65
2022/08/02 02:13:15;;;;;;;2.65;2.25;;;19.00;99.90;;;;;;5031245;28;20269;-65
2022/08/02 02:15:46;;;;;;;3.15;2.65;;;19.00;99.90;;;;;;5029879;28;20186;-65
2022/08/02 02:18:17;;;;;;;2.63;2.42;;;19.00;99.90;;;;;;5029471;28;20214;-65
2022/08/02 02:20:43;;;;;;;2.78;2.58;;;19.00;99.90;;;;;;5026447;28;20620;-65
2022/08/02 02:23:10;;;;;;;2.77;2.57;;;19.00;99.90;;;;;;5030433;28;20324;-65
2022/08/02 02:25:36;;;;;;;2.78;2.40;;;19.00;99.90;;;;;;5031132;28;20437;-65
2022/08/02 02:28:04;;;;;;;3.25;2.60;;;19.30;99.90;;;;;;5029168;28;20242;-65
2022/08/02 02:30:32;;;;;;;2.78;2.58;;;19.00;99.90;;;;;;5027115;28;20186;-65
2022/08/02 02:33:01;;;;;;;3.00;2.65;;;19.00;99.90;;;;;;5027758;28;20195;-65
2022/08/02 02:35:29;;;;;;;3.03;2.72;;;18.90;99.90;;;;;;5029642;28;20209;-65
2022/08/02 02:37:57;;;;;;;2.70;2.50;;;19.00;99.90;;;;;;5028032;28;20762;-65
2022/08/02 02:40:25;;;;;;;3.00;2.80;;;18.90;99.90;;;;;;5029808;28;20214;-65
2022/08/02 02:42:51;;;;;;;3.22;2.50;;;19.00;99.90;;;;;;5029602;28;20178;-65
2022/08/02 02:45:18;;;;;;;2.72;2.53;;;18.90;99.90;;;;;;5027720;28;20240;-65
2022/08/02 02:47:46;;;;;;;2.50;2.35;;;18.90;99.90;;;;;;5026045;28;20207;-65
2022/08/02 02:50:11;;;;;;;2.70;2.35;;;19.10;99.90;;;;;;5030989;28;20698;-65
2022/08/02 02:52:41;;;;;;;2.60;2.40;;;18.90;99.90;;;;;;5029685;28;20182;-65
2022/08/02 02:55:08;;;;;;;2.80;2.50;;;19.00;99.90;;;;;;5029919;28;20547;-65
2022/08/02 02:57:35;;;;;;;2.97;2.20;;;19.00;99.90;;;;;;5029543;28;20213;-65
2022/08/02 03:00:03;;;;;;;3.35;2.65;;;19.10;99.90;;;;;;5025435;28;20459;-65
2022/08/02 03:02:29;;;;;;;2.83;2.63;;;19.00;99.90;;;;;;5029114;28;20277;-65
2022/08/02 03:04:56;;;;;;;4.50;2.40;;;19.10;99.90;;;;;;5026428;28;20274;-65
2022/08/02 03:07:22;;;;;;;2.85;2.63;;;19.10;99.90;;;;;;5028334;28;20523;-65
2022/08/02 03:09:48;;;;;;;3.30;2.67;;;19.10;99.90;;;;;;5030309;28;20209;-65
2022/08/02 03:12:14;;;;;;;2.47;2.10;;;19.10;99.90;;;;;;5030236;28;20565;-65
2022/08/02 03:14:42;;;;;;;2.87;2.67;;;19.10;99.90;;;;;;5026451;28;20216;-65
2022/08/02 03:17:07;;;;;;;3.13;2.83;;;19.10;99.90;;;;;;5029173;28;20445;-65
2022/08/02 03:19:33;;;;;;;2.70;2.50;;;19.10;99.90;;;;;;5026381;28;20190;-65
2022/08/02 03:21:58;;;;;;;3.00;2.70;;;19.00;99.90;;;;;;5028115;28;20325;-65
2022/08/02 03:24:24;;;;;;;2.50;2.30;;;18.90;99.90;;;;;;5030323;28;20186;-65
2022/08/02 03:26:50;;;;;;;2.87;2.67;;;18.80;99.90;;;;;;5027265;28;20202;-65
2022/08/02 03:29:15;;;;;;;3.30;3.00;;;18.70;99.90;;;;;;5018460;28;20198;-65
2022/08/02 03:31:45;;;;;;;3.60;3.30;;;18.70;99.90;;;;;;5028125;28;20337;-65
2022/08/02 03:34:10;;;;;;;3.17;2.97;;;18.60;99.90;;;;;;5028082;28;20178;-65
2022/08/02 03:36:37;;;;;;;2.80;2.60;;;18.60;99.90;;;;;;5029051;28;20186;-65
2022/08/02 03:39:05;;;;;;;3.00;2.80;;;18.50;99.90;;;;;;5028460;28;20524;-65
2022/08/02 03:41:31;;;;;;;3.33;3.03;;;19.00;99.90;;;;;;5026873;28;20187;-65
2022/08/02 03:43:58;;;;;;;3.10;2.65;;;18.40;99.90;;;;;;5025284;28;20186;-65
2022/08/02 03:46:24;;;;;;;2.90;2.70;;;18.40;99.90;;;;;;5029618;28;20766;-65
2022/08/02 03:48:51;;;;;;;3.00;2.78;;;18.40;99.90;;;;;;5029212;28;20218;-65
2022/08/02 03:51:21;;;;;;;3.25;2.90;;;18.60;99.90;;;;;;5027861;28;20182;-65
2022/08/02 03:53:47;;;;;;;3.00;2.80;;;18.40;99.90;;;;;;5029526;28;20556;-65
2022/08/02 03:56:14;;;;;;;2.65;2.42;;;18.40;99.90;;;;;;5029757;28;20186;-65
2022/08/02 03:58:39;;;;;;;2.88;2.67;;;18.30;99.90;;;;;;5021331;28;20686;-65
2022/08/02 04:01:05;;;;;;;2.80;2.60;;;18.30;99.90;;;;;;5027353;28;20190;-65
2022/08/02 04:03:31;;;;;;;3.53;3.17;;;18.30;99.90;;;;;;5028991;28;20197;-65
2022/08/02 04:05:56;;;;;;;4.03;3.37;;;18.30;99.90;;;;;;5027099;28;20193;-65
2022/08/02 04:08:22;;;;;;;3.83;3.20;;;18.30;99.90;;;;;;5032092;28;20229;-65
2022/08/02 04:13:34;;;;;;;2.70;2.50;;;18.30;99.90;;;;;;5033141;28;20285;-65
2022/08/02 04:16:14;;;;;;;3.35;2.50;;;18.30;99.90;;;;;;5033380;28;20174;-65
2022/08/02 04:18:45;;;;;;;3.28;2.97;;;18.30;99.90;;;;;;5023762;28;20213;-65
2022/08/02 04:21:15;;;;;;;3.00;2.75;;;18.30;99.90;;;;;;5030380;28;20193;-65
2022/08/02 04:23:44;;;;;;;2.95;2.75;;;18.30;99.90;;;;;;5030673;28;20276;-65
2022/08/02 04:26:11;;;;;;;2.88;2.42;;;18.20;99.90;;;;;;5029073;28;20564;-65
2022/08/02 04:28:37;;;;;;;3.15;2.85;;;18.20;99.90;;;;;;5032085;28;20216;-65
2022/08/02 04:31:04;;;;;;;4.60;3.30;;;18.70;99.90;;;;;;5028806;28;20186;-65
2022/08/02 04:33:30;;;;;;;3.30;3.10;;;18.20;99.90;;;;;;5026662;28;20437;-65
2022/08/02 04:35:57;;;;;;;3.07;2.80;;;18.20;99.90;;;;;;5029225;28;20578;-64
2022/08/02 04:38:24;;;;;;;4.28;2.88;;;18.20;99.90;;;;;;5026174;28;20498;-65
2022/08/02 04:40:54;;;;;;;2.95;2.75;;;18.20;99.90;;;;;;5033834;28;20662;-65
2022/08/02 04:43:20;;;;;;;3.13;2.92;;;18.20;99.90;;;;;;5031273;28;20186;-65
2022/08/02 04:45:51;;;;;;;3.15;2.85;;;18.30;99.90;;;;;;5032350;28;20568;-65
2022/08/02 04:48:17;;;;;;;3.85;3.13;;;18.30;99.90;;;;;;5029900;28;20222;-65
2022/08/02 04:50:42;;;;;;;3.27;2.97;;;18.30;99.90;;;;;;5029884;28;20186;-65
2022/08/02 04:53:08;;;;;;;3.10;2.50;;;18.30;99.90;;;;;;5032718;28;20184;-65
2022/08/02 04:55:33;;;;;;;3.83;2.70;;;18.20;99.90;;;;;;5031096;28;20265;-65
2022/08/02 04:57:59;;;;;;;3.87;3.10;;;18.40;99.90;;;;;;5032048;28;20452;-65
2022/08/02 05:00:26;;;;;;;4.43;2.70;;;18.40;99.90;;;;;;5042017;28;20693;-65
2022/08/02 05:02:53;;;;;;;3.15;2.95;;;18.40;99.90;;;;;;5032105;28;20269;-64
2022/08/02 05:05:19;;;;;;;5.50;2.60;;;18.40;99.90;;;;;;5028429;28;20210;-65
2022/08/02 05:07:45;;;;;;;3.47;2.75;;;18.50;99.90;;;;;;5032673;28;20640;-65
2022/08/02 05:10:10;;;;;;;3.40;3.10;;;18.50;99.90;;;;;;5025278;28;20273;-71
2022/08/02 05:12:40;;;;;;;3.40;3.10;;;18.50;99.90;;;;;;5030377;28;20560;-77
2022/08/02 05:15:06;;;;;;;4.57;3.25;;;18.70;99.90;;;;;;5025025;28;20236;-75
2022/08/02 05:17:32;;;;;;;3.90;2.60;;;18.80;99.90;;;;;;5032128;28;20570;-73
2022/08/02 05:19:57;;;;;;;3.20;2.43;;;18.90;99.90;;;;;;5024896;28;20262;-82
2022/08/02 05:22:23;;;;;;;3.03;2.83;;;19.10;99.90;;;;;;5025928;28;20191;-71
2022/08/02 05:24:49;;;;;;;3.60;2.93;;;19.20;99.90;;;;;;5029509;28;20198;-70
2022/08/02 05:27:14;;;;;;;3.57;3.10;;;19.30;99.90;;;;;;5028230;28;20213;-69
2022/08/02 05:29:40;;;;;;;3.60;2.80;;;19.40;99.90;;;;;;5032980;28;20212;-70
2022/08/02 05:32:06;;;;;;;4.40;2.77;;;19.60;99.90;;;;;;5026462;28;20277;-70
2022/08/02 05:34:31;;;;;;;3.17;2.87;;;19.70;99.90;;;;;;5020048;28;20256;-72
2022/08/02 05:36:57;;;;;;;3.80;3.50;;;19.90;99.90;;;;;;5025729;28;20227;-71
2022/08/02 05:39:22;;;;;;;5.00;2.87;;;19.90;99.90;;;;;;5028422;28;20231;-71
2022/08/02 05:41:48;;;;;;;3.27;2.97;;;20.00;99.90;;;;;;5028715;28;20202;-71
2022/08/02 05:44:13;;;;;;;3.10;2.90;;;20.10;99.90;;;;;;5028483;28;20202;-71
2022/08/02 05:46:39;;;;;;;3.53;3.23;;;20.30;99.90;;;;;;5023824;28;20202;-71
2022/08/02 05:49:05;;;;;;;3.27;2.97;;;20.40;99.90;;;;;;5029350;28;20566;-74
2022/08/02 05:52:04;;;;;;;3.53;3.23;;;20.40;99.90;;;;;;5028053;28;20617;-69
2022/08/02 05:54:38;;;;;;;3.40;3.05;;;20.50;99.90;;;;;;5017343;28;20204;-71
2022/08/02 05:57:20;;;;;;;2.72;2.50;;;20.60;99.90;;;;;;5020680;28;20200;-72
2022/08/02 06:00:05;;;;;;;3.47;3.17;;;20.70;99.90;;;;;;5028912;28;20221;-72
2022/08/02 06:03:01;;;;;;;3.47;3.03;;;20.90;99.90;;;;;;5028994;28;20186;-76
2022/08/02 06:05:34;;;;;;;4.28;3.05;;;21.10;99.90;;;;;;5046336;28;20198;-78
2022/08/02 06:08:01;;;;;;;2.85;2.65;;;21.30;99.90;;;;;;5024013;28;20304;-79
2022/08/02 06:10:28;;;;;;;3.78;3.00;;;21.40;99.90;;;;;;5026196;28;20201;-79
2022/08/02 06:13:20;;;;;;;3.25;2.95;;;21.40;99.90;;;;;;5033771;28;20190;-76
2022/08/02 06:15:50;;;;;;;3.10;2.88;;;21.50;99.90;;;;;;5023711;28;20559;-76
2022/08/02 06:18:16;;;;;;;3.55;3.10;;;21.50;99.90;;;;;;5030596;28;20228;-77
2022/08/02 06:20:42;;;;;;;6.60;3.17;;;21.50;99.90;;;;;;5019553;28;20242;-74
2022/08/02 06:23:08;;;;;;;3.30;3.00;;;21.60;99.90;;;;;;5029750;28;20189;-77
2022/08/02 06:25:35;;;;;;;4.03;3.30;;;21.70;99.90;;;;;;5027875;28;20194;-75
2022/08/02 06:28:03;;;;;;;3.63;3.33;;;21.90;99.90;;;;;;5027832;28;20210;-75
2022/08/02 06:30:30;;;;;;;3.53;3.20;;;21.90;99.90;;;;;;5023792;28;20186;-76
2022/08/02 06:32:57;;;;;;;3.50;3.20;;;21.90;99.90;;;;;;5032231;28;20429;-80
2022/08/02 06:35:28;;;;;;;4.97;3.10;;;22.10;99.90;;;;;;5024551;28;20187;-77
2022/08/02 06:37:59;;;;;;;8.00;7.35;;;22.20;99.90;;;;;;5024883;28;20459;-76
2022/08/02 06:40:28;;;;;;;4.20;3.90;;;22.30;99.90;;;;;;5023943;28;20643;-77
2022/08/02 06:43:19;;;;;;;3.70;3.47;;;22.50;99.90;;;;;;5026950;28;20910;-76
2022/08/02 06:45:44;;;;;;;3.77;3.40;;;22.50;99.90;;;;;;5024456;28;20432;-76
2022/08/02 06:48:10;;;;;;;4.40;4.00;;;22.60;99.90;;;;;;5027319;28;20519;-75
2022/08/02 06:50:40;;;;;;;4.40;4.00;;;22.80;99.90;;;;;;5026073;28;20436;-75
2022/08/02 06:53:08;;;;;;;4.30;3.90;;;22.90;99.90;;;;;;5028416;28;20182;-76
2022/08/02 06:55:34;;;;;;;6.00;5.50;;;22.90;99.90;;;;;;5028190;28;20836;-74
2022/08/02 06:58:00;;;;;;;5.07;4.57;;;22.90;99.90;;;;;;5028399;28;20543;-77
2022/08/02 07:00:26;;;;;;;4.67;4.37;;;23.00;99.90;;;;;;5023632;28;20616;-77
2022/08/02 07:02:52;;;;;;;5.17;4.77;;;23.10;99.90;;;;;;5021569;28;20253;-78
2022/08/02 07:05:18;;;;;;;4.70;4.30;;;23.20;99.90;;;;;;5024723;28;21071;-69
2022/08/02 07:07:44;;;;;;;4.27;3.87;;;23.20;99.80;;;;;;5026533;28;20256;-71
2022/08/02 07:10:11;;;;;;;4.53;4.13;;;23.80;99.90;;;;;;5028735;28;21172;-76
2022/08/02 07:12:37;;;;;;;4.37;3.97;;;25.20;97.10;;;;;;5025636;28;20440;-76
2022/08/02 07:15:05;;;;;;;6.77;4.10;;;26.90;93.70;;;;;;5028227;28;20512;-75
2022/08/02 07:17:32;;;;;;;4.53;4.13;;;28.90;90.00;;;;;;5024814;28;20210;-76
2022/08/02 07:19:58;;;;;;;7.80;3.47;;;30.40;83.90;;;;;;5025204;28;20442;-75
2022/08/02 07:22:25;;;;;;;5.40;3.50;;;32.30;74.20;;;;;;5024830;28;20431;-78
2022/08/02 07:24:52;;;;;;;3.80;3.50;;;33.40;67.00;;;;;;5025732;28;21000;-67
2022/08/02 07:27:18;;;;;;;3.10;2.80;;;34.20;63.00;;;;;;5024546;28;20468;-68
2022/08/02 07:29:44;;;;;;;4.80;4.30;;;35.60;58.60;;;;;;5022983;28;20977;-78
2022/08/02 07:32:10;;;;;;;4.07;3.77;;;35.50;56.50;;;;;;5029995;28;20470;-75
2022/08/02 07:34:35;;;;;;;3.20;3.00;;;36.00;55.80;;;;;;5027218;28;20468;-69
2022/08/02 07:37:01;;;;;;;5.20;3.53;;;37.10;53.80;;;;;;5023459;28;20209;-70
2022/08/02 07:39:27;;;;;;;3.53;3.30;;;38.10;50.70;;;;;;5028082;28;20196;-66
2022/08/02 07:41:53;;;;;;;4.20;3.80;;;38.60;49.60;;;;;;5031571;28;20440;-66
2022/08/02 07:44:19;;;;;;;4.47;3.43;;;38.60;48.90;;;;;;5032444;28;20189;-66
2022/08/02 07:46:45;;;;;;;4.03;3.73;;;38.10;48.20;;;;;;5027812;28;20559;-65
2022/08/02 07:49:17;;;;;;;3.60;3.30;;;38.20;47.90;;;;;;5031816;28;20506;-69
2022/08/02 07:51:43;;;;;;;4.00;3.60;;;37.30;48.90;;;;;;5032715;28;20519;-69
2022/08/02 07:54:09;;;;;;;4.17;3.80;;;36.40;48.70;;;;;;5031546;28;20437;-74
2022/08/02 07:56:36;;;;;;;3.73;3.43;;;36.30;50.20;;;;;;5030074;28;20451;-76
2022/08/02 07:59:02;;;;;;;4.83;4.20;;;36.60;49.80;;;;;;5033166;28;20269;-75
2022/08/02 08:01:28;;;;;;;3.87;3.57;;;37.60;48.50;;;;;;5030842;28;20436;-74
2022/08/02 08:03:53;;;;;;;3.87;3.57;;;36.50;49.70;;;;;;5031317;28;20563;-72
2022/08/02 08:06:19;;;;;;;4.10;3.70;;;35.80;50.90;;;;;;5029235;28;20186;-79
2022/08/02 08:08:44;;;;;;;3.43;3.23;;;36.10;49.60;;;;;;5034012;28;20214;-77
2022/08/02 08:11:10;;;;;;;3.97;3.67;;;38.10;47.80;;;;;;5029843;28;20530;-78
2022/08/02 08:13:35;;;;;;;3.93;3.60;;;38.70;46.40;;;;;;5027910;28;20182;-77
2022/08/02 08:16:01;;;;;;;8.10;4.33;;;38.80;46.30;;;;;;5030333;28;20237;-74
2022/08/02 08:18:27;;;;;;;4.37;3.37;;;37.80;46.30;;;;;;5031662;28;20236;-73
2022/08/02 08:20:52;;;;;;;4.60;3.63;;;37.40;47.70;;;;;;5031479;28;20187;-76
2022/08/02 08:23:18;;;;;;;4.13;3.83;;;38.30;46.40;;;;;;5028658;28;20182;-76
2022/08/02 08:25:43;;;;;;;5.67;4.23;;;38.70;45.50;;;;;;5024408;28;20192;-75
2022/08/02 08:28:09;;;;;;;4.40;4.00;;;37.30;47.00;;;;;;5030648;28;20217;-75
2022/08/02 08:30:35;;;;;;;4.97;3.33;;;38.60;45.90;;;;;;5027302;28;20232;-76
2022/08/02 08:33:00;;;;;;;7.20;3.40;;;38.60;46.00;;;;;;5025655;28;20182;-76
2022/08/02 08:35:26;;;;;;;4.43;4.03;;;39.20;45.00;;;;;;5029583;28;20228;-74
2022/08/02 08:37:51;;;;;;;5.23;4.03;;;39.50;43.80;;;;;;5029478;28;20674;-76
2022/08/02 08:40:18;;;;;;;4.00;3.60;;;39.00;45.00;;;;;;5026939;28;20260;-67
2022/08/02 08:42:43;;;;;;;3.80;3.50;;;39.80;43.70;;;;;;5035446;28;20269;-75
2022/08/02 08:45:09;;;;;;;4.07;3.67;;;39.00;43.70;;;;;;5029923;28;20588;-74
2022/08/02 08:47:42;;;;;;;4.43;4.13;;;38.30;44.10;;;;;;5028946;28;20217;-73
2022/08/02 08:50:20;;;;;;;4.20;3.90;;;38.30;45.40;;;;;;5022931;28;20965;-72
2022/08/02 08:53:00;;;;;;;4.97;4.53;;;38.90;43.60;;;;;;5035668;28;20432;-71
2022/08/02 08:55:27;;;;;;;4.50;4.10;;;38.80;42.90;;;;;;5027359;28;20448;-69
2022/08/02 08:57:54;;;;;;;3.70;3.33;;;37.80;44.40;;;;;;5026185;28;20600;-70
2022/08/02 09:00:26;;;;;;;4.33;4.03;;;39.20;43.50;;;;;;5025476;28;20623;-70
2022/08/02 09:02:59;;;;;;;4.20;3.90;;;40.30;42.00;;;;;;5028030;28;20441;-68
2022/08/02 09:05:28;;;;;;;4.83;4.40;;;40.30;40.90;;;;;;5030112;28;20523;-68
2022/08/02 09:07:54;;;;;;;4.77;4.43;;;40.50;39.90;;;;;;5035340;28;20517;-68
2022/08/02 09:10:43;;;;;;;4.70;4.40;;;39.50;40.40;;;;;;5031402;28;20479;-68
2022/08/02 09:13:16;;;;;;;4.40;4.10;;;39.20;41.40;;;;;;5017770;28;20254;-68
2022/08/02 09:15:43;;;;;;;7.00;4.83;;;39.00;41.70;;;;;;5027821;28;20438;-68
2022/08/02 09:18:10;;;;;;;4.47;4.17;;;40.00;41.10;;;;;;5028555;28;20953;-68
2022/08/02 09:20:53;;;;;;;4.30;4.00;;;41.00;39.70;;;;;;5030373;28;20429;-68
2022/08/02 09:23:21;;;;;;;4.50;4.20;;;40.20;39.50;;;;;;5033819;28;20482;-68
2022/08/02 09:26:02;;;;;;;4.33;4.03;;;40.40;39.20;;;;;;5031252;28;20429;-68
2022/08/02 09:28:29;;;;;;;5.57;4.43;;;40.50;39.50;;;;;;5019382;28;20472;-68
2022/08/02 09:30:58;;;;;;;4.27;3.97;;;40.80;39.10;;;;;;5029689;28;21020;-68
2022/08/02 09:33:27;;;;;;;4.60;4.30;;;40.20;39.30;;;;;;5031693;28;20441;-68
2022/08/02 09:36:04;;;;;;;4.93;4.63;;;39.90;39.90;;;;;;5027499;28;20441;-68
2022/08/02 09:38:32;;;;;;;7.27;4.97;;;38.40;40.40;;;;;;5022991;28;20467;-68
2022/08/02 09:40:59;;;;;;;5.60;5.20;;;38.80;40.40;;;;;;5031586;28;20791;-69
2022/08/02 09:43:36;;;;;;;4.40;4.10;;;38.70;40.20;;;;;;5031834;28;20843;-69
2022/08/02 09:46:29;;;;;;;5.77;5.30;;;38.30;40.60;;;;;;5022002;28;21186;-68
2022/08/02 09:48:56;;;;;;;5.30;4.80;;;37.10;42.50;;;;;;5030612;28;20593;-70
2022/08/02 09:51:23;;;;;;;6.60;5.40;;;35.80;45.00;;;;;;5027765;28;20544;-68
2022/08/02 09:53:51;;;;;;;4.50;4.20;;;35.20;44.20;;;;;;5031054;28;20495;-68
2022/08/02 09:56:18;;;;;;;4.60;4.20;;;35.70;45.40;;;;;;5030524;28;20476;-68
2022/08/02 09:58:45;;;;;;;5.10;4.70;;;36.40;44.40;;;;;;5030456;28;20547;-68
2022/08/02 10:01:11;;;;;;;5.20;4.90;;;36.50;44.70;;;;;;5025137;28;21019;-69
2022/08/02 10:03:36;;;;;;;5.27;4.87;;;37.60;43.70;;;;;;5030576;28;20429;-70
2022/08/02 10:06:03;;;;;;;5.37;4.87;;;37.80;42.00;;;;;;5024230;28;20193;-68
2022/08/02 10:08:30;;;;;;;5.13;4.73;;;38.50;41.90;;;;;;5023894;28;20218;-68
2022/08/02 10:11:00;;;;;;;5.60;4.87;;;38.50;41.60;;;;;;5017080;28;20428;-68
2022/08/02 10:13:34;;;;;;;5.00;4.60;;;38.50;41.50;;;;;;5029658;28;20432;-69
2022/08/02 10:16:01;;;;;;;4.80;4.50;;;37.80;42.60;;;;;;5023355;28;20524;-69
2022/08/02 10:18:27;;;;;;;4.80;4.50;;;37.40;42.90;;;;;;5026004;28;20453;-69
2022/08/02 10:20:55;;;;;;;5.20;4.80;;;37.30;43.10;;;;;;5025263;28;20506;-69
2022/08/02 10:23:24;;;;;;;5.43;5.03;;;36.60;43.40;;;;;;5029746;28;20511;-69
2022/08/02 10:25:51;;;;;;;5.00;4.70;;;35.00;45.20;;;;;;5030045;28;20429;-69
2022/08/02 10:28:18;;;;;;;6.97;4.57;;;33.10;48.30;;;;;;5028574;28;20479;-69
2022/08/02 10:30:47;;;;;;;4.67;4.37;;;32.60;50.50;;;;;;5020221;28;20437;-69
2022/08/02 10:33:16;;;;;;;4.93;4.50;;;32.30;51.60;;;;;;5028335;28;20439;-70
2022/08/02 10:35:42;;;;;;;4.80;4.40;;;31.80;52.30;;;;;;5026367;28;20538;-70
2022/08/02 10:38:10;;;;;;;4.93;4.63;;;31.50;53.30;;;;;;5022681;28;20993;-70
2022/08/02 10:40:47;;;;;;;7.20;4.80;;;31.00;53.00;;;;;;5029848;28;20426;-70
2022/08/02 10:43:35;;;;;;;4.40;4.10;;;30.80;54.20;;;;;;5029160;28;20456;-69
2022/08/02 10:46:31;;;;;;;5.53;5.13;;;30.50;55.50;;;;;;5025476;28;20820;-69
2022/08/02 10:49:17;;;;;;;4.03;3.73;;;30.40;54.80;;;;;;5029409;28;20571;-70
2022/08/02 10:52:13;;;;;;;3.90;3.50;;;30.40;54.50;;;;;;5027070;28;20463;-69
2022/08/02 10:54:47;;;;;;;6.20;4.40;;;30.40;54.50;;;;;;5024953;28;20741;-69
2022/08/02 10:57:16;;;;;;;4.07;3.70;;;30.20;55.30;;;;;;5026387;28;20938;-69
2022/08/02 10:59:42;;;;;;;5.00;4.60;;;29.60;54.90;;;;;;5025299;28;20483;-72
2022/08/02 11:02:08;;;;;;;4.50;4.10;;;29.30;58.00;;;;;;5024430;28;20795;-78
2022/08/02 11:04:39;;;;;;;4.73;4.43;;;29.60;58.70;;;;;;5034583;28;20446;-79
2022/08/02 11:07:06;;;;;;;4.23;3.93;;;29.90;58.90;;;;;;5027865;28;20479;-79
2022/08/02 11:09:31;;;;;;;4.63;4.30;;;30.10;56.80;;;;;;5030737;28;20464;-79
2022/08/02 11:12:08;;;;;;;4.40;4.03;;;30.30;55.50;;;;;;5033315;28;20531;-74
2022/08/02 11:14:45;;;;;;;4.23;3.93;;;30.60;54.80;;;;;;5026116;28;20183;-79
2022/08/02 11:17:18;;;;;;;4.87;4.47;;;31.20;54.60;;;;;;5028902;28;20498;-68
2022/08/02 11:20:11;;;;;;;4.67;4.27;;;32.10;54.20;;;;;;5026278;28;20444;-73
2022/08/02 11:22:41;;;;;;;4.77;4.37;;;33.60;51.10;;;;;;5023165;28;20818;-72
2022/08/02 11:25:24;;;;;;;4.43;4.13;;;34.40;49.40;;;;;;5030035;28;20503;-67
2022/08/02 11:28:07;;;;;;;4.70;4.30;;;34.80;48.80;;;;;;5024699;28;20468;-67
2022/08/02 11:30:33;;;;;;;4.73;4.43;;;35.40;47.10;;;;;;5024933;28;20444;-66
2022/08/02 11:32:59;;;;;;;4.53;4.23;;;36.10;46.80;;;;;;5029351;28;20475;-66
2022/08/02 11:35:33;;;;;;;13.60;4.43;;;36.20;45.90;;;;;;5023042;28;20182;-68
2022/08/02 11:38:15;;;;;;;3.97;3.67;;;36.60;45.20;;;;;;5027354;28;20452;-70
2022/08/02 11:40:41;;;;;;;4.10;3.80;;;36.70;44.50;;;;;;5028178;28;20441;-78
2022/08/02 11:43:16;;;;;;;4.23;3.93;;;36.90;44.10;;;;;;5022721;28;20502;-77
2022/08/02 11:45:41;;;;;;;3.90;3.70;;;36.20;44.70;;;;;;5023192;28;20439;-78
2022/08/02 11:48:07;;;;;;;4.43;4.00;;;36.20;44.40;;;;;;5025190;28;20456;-77
2022/08/02 11:50:32;;;;;;;4.47;4.17;;;36.10;45.10;;;;;;5025508;28;20186;-75
2022/08/02 11:52:58;;;;;;;4.47;4.07;;;36.60;44.10;;;;;;5029950;28;20189;-74
2022/08/02 11:55:28;;;;;;;4.30;4.00;;;35.90;43.40;;;;;;5030480;28;20674;-75
2022/08/02 11:58:03;;;;;;;4.77;4.37;;;35.90;44.00;;;;;;5030825;28;20216;-77
2022/08/02 12:00:29;;;;;;;4.73;4.33;;;35.30;44.60;;;;;;5025483;28;20432;-77
2022/08/02 12:02:54;;;;;;;5.30;4.80;;;34.40;45.40;;;;;;5026545;28;20845;-72
2022/08/02 12:05:22;;;;;;;4.47;4.07;;;34.20;46.20;;;;;;5027348;28;20185;-77
2022/08/02 12:07:50;;;;;;;4.80;4.40;;;34.00;46.70;;;;;;5023403;28;20206;-78
2022/08/02 12:10:21;;;;;;;4.90;4.60;;;33.50;47.10;;;;;;5021983;28;20484;-78
2022/08/02 12:12:56;;;;;;;4.67;4.27;;;33.00;48.40;;;;;;5021587;28;20441;-76
2022/08/02 12:15:32;;;;;;;4.73;4.20;;;32.70;49.00;;;;;;5022354;28;20574;-72
2022/08/02 12:20:42;;;;;;;4.90;4.43;;;31.90;50.30;;;;;;5020382;28;20458;-73
2022/08/02 12:23:08;;;;;;;5.70;4.20;;;31.50;51.30;;;;;;5027957;28;20495;-71
2022/08/02 12:25:34;;;;;;;4.57;4.27;;;31.30;51.80;;;;;;5028328;28;20977;-71
2022/08/02 12:28:21;;;;;;;5.07;4.67;;;31.10;52.20;;;;;;5028619;28;20206;-64
2022/08/02 12:30:52;;;;;;;4.80;4.40;;;30.90;52.70;;;;;;5027757;28;20213;-73
2022/08/02 12:33:17;;;;;;;5.23;4.70;;;30.70;54.10;;;;;;5018811;28;20855;-74
2022/08/02 12:35:43;;;;;;;5.00;4.53;;;30.60;54.90;;;;;;5030091;28;20432;-68
2022/08/02 12:38:10;;;;;;;4.77;4.37;;;30.40;55.00;;;;;;5032231;28;20993;-67
2022/08/02 12:40:35;;;;;;;4.50;4.20;;;30.10;55.40;;;;;;5031896;28;20533;-71
2022/08/02 12:43:04;;;;;;;5.67;5.03;;;30.00;55.60;;;;;;5034636;28;20435;-80
2022/08/02 12:45:48;;;;;;;4.50;4.20;;;30.00;54.60;;;;;;5030370;28;20554;-77
2022/08/02 12:48:14;;;;;;;5.20;4.83;;;30.00;55.40;;;;;;5031107;28;20525;-79
2022/08/02 12:50:39;;;;;;;4.60;4.20;;;29.80;54.80;;;;;;5032577;28;20497;-81
2022/08/02 12:53:08;;;;;;;4.73;4.30;;;29.60;55.20;;;;;;5033355;28;20427;-67
2022/08/02 12:55:37;;;;;;;5.20;4.70;;;29.50;55.60;;;;;;5029358;28;20182;-66
2022/08/02 12:58:04;;;;;;;4.70;4.40;;;29.40;55.30;;;;;;5027047;28;20995;-66
2022/08/02 13:00:36;;;;;;;4.73;4.30;;;29.30;55.80;;;;;;5034762;28;20455;-71
2022/08/02 13:03:02;;;;;;;5.10;4.50;;;29.10;56.20;;;;;;5027770;28;20440;-74